sensor_id;sensor_type;location;lat;lon;timestamp;P1;durP1;ratioP1;P2;durP2;ratioP2
31018;SDS011;17689;45.610;5.858;2022-08-19T00:01:45;6.67;;;5.47;;
31018;SDS011;17689;45.610;5.858;2022-08-19T00:04:13;6.80;;;5.40;;
31018;SDS011;17689;45.610;5.858;2022-08-19T00:06:40;6.83;;;5.47;;
31018;SDS011;17689;45.610;5.858;2022-08-19T00:09:07;6.57;;;6.00;;
31018;SDS011;17689;45.610;5.858;2022-08-19T00:11:34;6.67;;;6.03;;
31018;SDS011;17689;45.610;5.858;2022-08-19T00:14:03;6.17;;;5.63;;
31018;SDS011;17689;45.610;5.858;2022-08-19T00:16:31;6.40;;;5.80;;
31018;SDS011;17689;45.610;5.858;2022-08-19T00:18:57;6.30;;;5.70;;
31018;SDS011;17689;45.610;5.858;2022-08-19T00:21:24;6.57;;;5.87;;
31018;SDS011;17689;45.610;5.858;2022-08-19T00:23:51;7.60;;;5.67;;
31018;SDS011;17689;45.610;5.858;2022-08-19T00:26:18;6.63;;;6.00;;
31018;SDS011;17689;45.610;5.858;2022-08-19T00:28:44;6.83;;;6.23;;
31018;SDS011;17689;45.610;5.858;2022-08-19T00:31:11;7.03;;;6.33;;
31018;SDS011;17689;45.610;5.858;2022-08-19T00:33:37;6.67;;;5.97;;
31018;SDS011;17689;45.610;5.858;2022-08-19T00:36:04;6.93;;;6.23;;
31018;SDS011;17689;45.610;5.858;2022-08-19T00:38:31;7.93;;;6.00;;
31018;SDS011;17689;45.610;5.858;2022-08-19T00:40:57;6.67;;;6.07;;
31018;SDS011;17689;45.610;5.858;2022-08-19T00:43:25;6.50;;;5.90;;
31018;SDS011;17689;45.610;5.858;2022-08-19T00:45:51;7.10;;;6.40;;
31018;SDS011;17689;45.610;5.858;2022-08-19T00:48:18;6.57;;;5.97;;
31018;SDS011;17689;45.610;5.858;2022-08-19T00:50:46;9.50;;;6.77;;
31018;SDS011;17689;45.610;5.858;2022-08-19T00:53:13;6.20;;;5.60;;
31018;SDS011;17689;45.610;5.858;2022-08-19T00:55:40;6.30;;;5.80;;
31018;SDS011;17689;45.610;5.858;2022-08-19T00:58:09;8.40;;;6.10;;
31018;SDS011;17689;45.610;5.858;2022-08-19T01:00:36;9.30;;;6.47;;
31018;SDS011;17689;45.610;5.858;2022-08-19T01:03:06;8.60;;;6.70;;
31018;SDS011;17689;45.610;5.858;2022-08-19T01:05:33;7.97;;;6.33;;
31018;SDS011;17689;45.610;5.858;2022-08-19T01:08:01;7.47;;;6.57;;
31018;SDS011;17689;45.610;5.858;2022-08-19T01:10:29;7.77;;;6.63;;
31018;SDS011;17689;45.610;5.858;2022-08-19T01:12:57;6.93;;;5.97;;
31018;SDS011;17689;45.610;5.858;2022-08-19T01:15:25;9.63;;;6.80;;
31018;SDS011;17689;45.610;5.858;2022-08-19T01:17:53;7.23;;;6.53;;
31018;SDS011;17689;45.610;5.858;2022-08-19T01:20:21;7.47;;;6.77;;
31018;SDS011;17689;45.610;5.858;2022-08-19T01:22:54;7.97;;;7.13;;
31018;SDS011;17689;45.610;5.858;2022-08-19T01:25:27;7.20;;;6.60;;
31018;SDS011;17689;45.610;5.858;2022-08-19T01:27:53;8.03;;;6.43;;
31018;SDS011;17689;45.610;5.858;2022-08-19T01:30:25;6.73;;;6.03;;
31018;SDS011;17689;45.610;5.858;2022-08-19T01:32:52;6.47;;;5.87;;
31018;SDS011;17689;45.610;5.858;2022-08-19T01:35:20;7.70;;;6.90;;
31018;SDS011;17689;45.610;5.858;2022-08-19T01:38:07;7.17;;;6.47;;
31018;SDS011;17689;45.610;5.858;2022-08-19T01:40:36;6.97;;;6.30;;
31018;SDS011;17689;45.610;5.858;2022-08-19T01:43:03;8.77;;;6.30;;
31018;SDS011;17689;45.610;5.858;2022-08-19T01:45:31;7.10;;;6.40;;
31018;SDS011;17689;45.610;5.858;2022-08-19T01:47:57;10.13;;;6.90;;
31018;SDS011;17689;45.610;5.858;2022-08-19T01:50:24;6.90;;;6.20;;
31018;SDS011;17689;45.610;5.858;2022-08-19T01:52:51;8.47;;;6.43;;
31018;SDS011;17689;45.610;5.858;2022-08-19T01:55:18;9.10;;;6.80;;
31018;SDS011;17689;45.610;5.858;2022-08-19T01:57:46;8.60;;;6.70;;
31018;SDS011;17689;45.610;5.858;2022-08-19T02:00:14;8.43;;;6.80;;
31018;SDS011;17689;45.610;5.858;2022-08-19T02:02:41;8.40;;;7.50;;
31018;SDS011;17689;45.610;5.858;2022-08-19T02:05:08;8.60;;;7.80;;
31018;SDS011;17689;45.610;5.858;2022-08-19T02:07:35;8.30;;;7.50;;
31018;SDS011;17689;45.610;5.858;2022-08-19T02:10:02;9.13;;;7.27;;
31018;SDS011;17689;45.610;5.858;2022-08-19T02:12:29;8.13;;;7.17;;
31018;SDS011;17689;45.610;5.858;2022-08-19T02:14:55;9.67;;;7.27;;
31018;SDS011;17689;45.610;5.858;2022-08-19T02:17:21;7.63;;;6.93;;
31018;SDS011;17689;45.610;5.858;2022-08-19T02:19:47;8.53;;;6.80;;
31018;SDS011;17689;45.610;5.858;2022-08-19T02:22:14;7.40;;;6.70;;
31018;SDS011;17689;45.610;5.858;2022-08-19T02:24:40;8.30;;;7.07;;
31018;SDS011;17689;45.610;5.858;2022-08-19T02:27:06;7.33;;;6.27;;
31018;SDS011;17689;45.610;5.858;2022-08-19T02:29:32;7.10;;;6.03;;
31018;SDS011;17689;45.610;5.858;2022-08-19T02:31:58;7.27;;;6.63;;
31018;SDS011;17689;45.610;5.858;2022-08-19T02:34:24;6.97;;;6.27;;
31018;SDS011;17689;45.610;5.858;2022-08-19T02:36:51;6.63;;;6.03;;
31018;SDS011;17689;45.610;5.858;2022-08-19T02:39:17;7.57;;;6.87;;
31018;SDS011;17689;45.610;5.858;2022-08-19T02:41:44;7.63;;;6.17;;
31018;SDS011;17689;45.610;5.858;2022-08-19T02:44:10;9.27;;;6.67;;
31018;SDS011;17689;45.610;5.858;2022-08-19T02:46:37;8.23;;;7.00;;
31018;SDS011;17689;45.610;5.858;2022-08-19T02:49:05;7.37;;;6.53;;
31018;SDS011;17689;45.610;5.858;2022-08-19T02:51:35;7.23;;;6.53;;
31018;SDS011;17689;45.610;5.858;2022-08-19T02:54:02;7.20;;;6.57;;
31018;SDS011;17689;45.610;5.858;2022-08-19T02:56:29;7.40;;;6.70;;
31018;SDS011;17689;45.610;5.858;2022-08-19T02:58:56;8.80;;;7.27;;
31018;SDS011;17689;45.610;5.858;2022-08-19T03:01:26;9.30;;;7.20;;
31018;SDS011;17689;45.610;5.858;2022-08-19T03:03:53;7.40;;;6.50;;
31018;SDS011;17689;45.610;5.858;2022-08-19T03:06:20;6.97;;;6.27;;
31018;SDS011;17689;45.610;5.858;2022-08-19T03:08:47;8.83;;;6.37;;
31018;SDS011;17689;45.610;5.858;2022-08-19T03:11:18;7.30;;;6.57;;
31018;SDS011;17689;45.610;5.858;2022-08-19T03:13:44;6.00;;;5.40;;
31018;SDS011;17689;45.610;5.858;2022-08-19T03:16:11;6.07;;;5.50;;
31018;SDS011;17689;45.610;5.858;2022-08-19T03:18:37;5.83;;;5.03;;
31018;SDS011;17689;45.610;5.858;2022-08-19T03:21:04;5.90;;;4.87;;
31018;SDS011;17689;45.610;5.858;2022-08-19T03:23:30;6.30;;;4.73;;
31018;SDS011;17689;45.610;5.858;2022-08-19T03:25:56;5.90;;;5.30;;
31018;SDS011;17689;45.610;5.858;2022-08-19T03:28:23;5.10;;;4.70;;
31018;SDS011;17689;45.610;5.858;2022-08-19T03:30:59;4.30;;;3.67;;
31018;SDS011;17689;45.610;5.858;2022-08-19T03:33:26;5.17;;;3.70;;
31018;SDS011;17689;45.610;5.858;2022-08-19T03:36:05;6.17;;;4.23;;
31018;SDS011;17689;45.610;5.858;2022-08-19T03:38:34;4.47;;;4.07;;
31018;SDS011;17689;45.610;5.858;2022-08-19T03:41:07;5.93;;;4.10;;
31018;SDS011;17689;45.610;5.858;2022-08-19T03:43:35;5.77;;;3.90;;
31018;SDS011;17689;45.610;5.858;2022-08-19T03:46:03;6.43;;;3.83;;
31018;SDS011;17689;45.610;5.858;2022-08-19T03:48:29;4.07;;;3.67;;
31018;SDS011;17689;45.610;5.858;2022-08-19T03:50:56;3.73;;;3.43;;
31018;SDS011;17689;45.610;5.858;2022-08-19T03:53:24;4.70;;;3.63;;
31018;SDS011;17689;45.610;5.858;2022-08-19T03:55:51;5.80;;;3.77;;
31018;SDS011;17689;45.610;5.858;2022-08-19T03:58:18;5.17;;;3.40;;
31018;SDS011;17689;45.610;5.858;2022-08-19T04:00:44;6.87;;;3.80;;
31018;SDS011;17689;45.610;5.858;2022-08-19T04:03:10;4.40;;;3.67;;
31018;SDS011;17689;45.610;5.858;2022-08-19T04:05:37;4.00;;;3.43;;
31018;SDS011;17689;45.610;5.858;2022-08-19T04:08:03;3.60;;;3.30;;
31018;SDS011;17689;45.610;5.858;2022-08-19T04:10:31;4.63;;;3.20;;
31018;SDS011;17689;45.610;5.858;2022-08-19T04:12:57;3.13;;;2.83;;
31018;SDS011;17689;45.610;5.858;2022-08-19T04:15:23;4.87;;;3.10;;
31018;SDS011;17689;45.610;5.858;2022-08-19T04:17:49;5.03;;;3.67;;
31018;SDS011;17689;45.610;5.858;2022-08-19T04:20:16;8.97;;;3.67;;
31018;SDS011;17689;45.610;5.858;2022-08-19T04:22:42;6.97;;;3.40;;
31018;SDS011;17689;45.610;5.858;2022-08-19T04:25:08;3.80;;;3.30;;
31018;SDS011;17689;45.610;5.858;2022-08-19T04:27:34;4.73;;;3.53;;
31018;SDS011;17689;45.610;5.858;2022-08-19T04:30:01;5.37;;;3.77;;
31018;SDS011;17689;45.610;5.858;2022-08-19T04:32:27;5.60;;;3.97;;
31018;SDS011;17689;45.610;5.858;2022-08-19T04:34:53;3.93;;;3.53;;
31018;SDS011;17689;45.610;5.858;2022-08-19T04:37:21;6.17;;;3.57;;
31018;SDS011;17689;45.610;5.858;2022-08-19T04:39:48;4.43;;;3.50;;
31018;SDS011;17689;45.610;5.858;2022-08-19T04:42:32;3.60;;;3.13;;
31018;SDS011;17689;45.610;5.858;2022-08-19T04:45:06;5.03;;;3.40;;
31018;SDS011;17689;45.610;5.858;2022-08-19T04:47:32;5.47;;;3.43;;
31018;SDS011;17689;45.610;5.858;2022-08-19T04:49:58;4.10;;;3.70;;
31018;SDS011;17689;45.610;5.858;2022-08-19T04:52:25;3.70;;;3.40;;
31018;SDS011;17689;45.610;5.858;2022-08-19T04:54:51;4.57;;;3.10;;
31018;SDS011;17689;45.610;5.858;2022-08-19T04:57:17;5.80;;;3.40;;
31018;SDS011;17689;45.610;5.858;2022-08-19T04:59:43;4.83;;;3.27;;
31018;SDS011;17689;45.610;5.858;2022-08-19T05:02:09;5.43;;;3.67;;
31018;SDS011;17689;45.610;5.858;2022-08-19T05:04:36;7.10;;;3.87;;
31018;SDS011;17689;45.610;5.858;2022-08-19T05:07:04;6.87;;;5.03;;
31018;SDS011;17689;45.610;5.858;2022-08-19T05:09:30;13.73;;;8.33;;
31018;SDS011;17689;45.610;5.858;2022-08-19T05:11:56;7.87;;;6.00;;
31018;SDS011;17689;45.610;5.858;2022-08-19T05:14:22;9.80;;;7.27;;
31018;SDS011;17689;45.610;5.858;2022-08-19T05:16:48;7.40;;;6.00;;
31018;SDS011;17689;45.610;5.858;2022-08-19T05:19:15;6.40;;;5.20;;
31018;SDS011;17689;45.610;5.858;2022-08-19T05:21:59;6.30;;;4.23;;
31018;SDS011;17689;45.610;5.858;2022-08-19T05:24:44;6.30;;;3.93;;
31018;SDS011;17689;45.610;5.858;2022-08-19T05:27:11;5.87;;;4.57;;
31018;SDS011;17689;45.610;5.858;2022-08-19T05:29:37;6.87;;;4.30;;
31018;SDS011;17689;45.610;5.858;2022-08-19T05:32:04;8.20;;;4.77;;
31018;SDS011;17689;45.610;5.858;2022-08-19T05:34:32;5.47;;;4.60;;
31018;SDS011;17689;45.610;5.858;2022-08-19T05:36:59;7.20;;;5.40;;
31018;SDS011;17689;45.610;5.858;2022-08-19T05:39:26;9.07;;;6.93;;
31018;SDS011;17689;45.610;5.858;2022-08-19T05:41:54;8.77;;;6.30;;
31018;SDS011;17689;45.610;5.858;2022-08-19T05:44:23;9.93;;;6.67;;
31018;SDS011;17689;45.610;5.858;2022-08-19T05:46:59;8.23;;;5.80;;
31018;SDS011;17689;45.610;5.858;2022-08-19T05:49:25;10.13;;;5.33;;
31018;SDS011;17689;45.610;5.858;2022-08-19T05:51:52;8.43;;;5.60;;
31018;SDS011;17689;45.610;5.858;2022-08-19T05:54:20;8.17;;;5.53;;
31018;SDS011;17689;45.610;5.858;2022-08-19T05:56:49;6.50;;;5.17;;
31018;SDS011;17689;45.610;5.858;2022-08-19T05:59:18;7.93;;;5.97;;
31018;SDS011;17689;45.610;5.858;2022-08-19T06:01:49;6.23;;;4.87;;
31018;SDS011;17689;45.610;5.858;2022-08-19T06:04:16;6.93;;;4.83;;
31018;SDS011;17689;45.610;5.858;2022-08-19T06:06:44;7.43;;;4.80;;
31018;SDS011;17689;45.610;5.858;2022-08-19T06:09:11;4.57;;;4.17;;
31018;SDS011;17689;45.610;5.858;2022-08-19T06:11:39;5.27;;;4.50;;
31018;SDS011;17689;45.610;5.858;2022-08-19T06:14:06;4.50;;;4.10;;
31018;SDS011;17689;45.610;5.858;2022-08-19T06:16:34;6.07;;;3.40;;
31018;SDS011;17689;45.610;5.858;2022-08-19T06:19:01;6.30;;;3.80;;
31018;SDS011;17689;45.610;5.858;2022-08-19T06:21:28;6.40;;;4.30;;
31018;SDS011;17689;45.610;5.858;2022-08-19T06:23:55;4.50;;;3.83;;
31018;SDS011;17689;45.610;5.858;2022-08-19T06:26:22;4.03;;;3.50;;
31018;SDS011;17689;45.610;5.858;2022-08-19T06:28:49;6.23;;;3.80;;
31018;SDS011;17689;45.610;5.858;2022-08-19T06:31:16;5.07;;;4.10;;
31018;SDS011;17689;45.610;5.858;2022-08-19T06:33:43;5.50;;;4.00;;
31018;SDS011;17689;45.610;5.858;2022-08-19T06:38:59;5.23;;;4.00;;
31018;SDS011;17689;45.610;5.858;2022-08-19T06:41:26;8.17;;;3.70;;
31018;SDS011;17689;45.610;5.858;2022-08-19T06:43:52;3.70;;;3.40;;
31018;SDS011;17689;45.610;5.858;2022-08-19T06:46:19;3.60;;;3.30;;
31018;SDS011;17689;45.610;5.858;2022-08-19T06:48:45;4.50;;;4.10;;
31018;SDS011;17689;45.610;5.858;2022-08-19T06:51:15;4.97;;;4.47;;
31018;SDS011;17689;45.610;5.858;2022-08-19T06:53:45;6.10;;;4.30;;
31018;SDS011;17689;45.610;5.858;2022-08-19T06:56:16;5.03;;;4.23;;
31018;SDS011;17689;45.610;5.858;2022-08-19T06:58:43;4.60;;;3.97;;
31018;SDS011;17689;45.610;5.858;2022-08-19T07:01:09;6.17;;;4.00;;
31018;SDS011;17689;45.610;5.858;2022-08-19T07:03:36;4.13;;;3.73;;
31018;SDS011;17689;45.610;5.858;2022-08-19T07:06:04;4.43;;;3.73;;
31018;SDS011;17689;45.610;5.858;2022-08-19T07:08:31;9.77;;;4.93;;
31018;SDS011;17689;45.610;5.858;2022-08-19T07:10:58;4.60;;;4.20;;
31018;SDS011;17689;45.610;5.858;2022-08-19T07:13:24;6.97;;;4.37;;
31018;SDS011;17689;45.610;5.858;2022-08-19T07:15:50;4.33;;;3.90;;
31018;SDS011;17689;45.610;5.858;2022-08-19T07:18:19;6.17;;;4.37;;
31018;SDS011;17689;45.610;5.858;2022-08-19T07:20:46;4.70;;;4.30;;
31018;SDS011;17689;45.610;5.858;2022-08-19T07:23:13;4.87;;;4.27;;
31018;SDS011;17689;45.610;5.858;2022-08-19T07:25:39;4.23;;;3.87;;
31018;SDS011;17689;45.610;5.858;2022-08-19T07:28:06;4.90;;;4.33;;
31018;SDS011;17689;45.610;5.858;2022-08-19T07:30:37;5.50;;;4.47;;
31018;SDS011;17689;45.610;5.858;2022-08-19T07:33:05;7.60;;;4.20;;
31018;SDS011;17689;45.610;5.858;2022-08-19T07:35:31;8.63;;;4.40;;
31018;SDS011;17689;45.610;5.858;2022-08-19T07:37:57;4.17;;;3.77;;
31018;SDS011;17689;45.610;5.858;2022-08-19T07:40:27;3.93;;;3.63;;
31018;SDS011;17689;45.610;5.858;2022-08-19T07:42:53;4.33;;;3.93;;
31018;SDS011;17689;45.610;5.858;2022-08-19T07:45:20;4.70;;;4.00;;
31018;SDS011;17689;45.610;5.858;2022-08-19T07:47:46;5.30;;;4.43;;
31018;SDS011;17689;45.610;5.858;2022-08-19T07:50:12;5.20;;;4.67;;
31018;SDS011;17689;45.610;5.858;2022-08-19T07:52:39;4.77;;;4.37;;
31018;SDS011;17689;45.610;5.858;2022-08-19T07:55:06;5.33;;;4.83;;
31018;SDS011;17689;45.610;5.858;2022-08-19T07:57:33;5.47;;;4.53;;
31018;SDS011;17689;45.610;5.858;2022-08-19T07:59:59;5.70;;;4.60;;
31018;SDS011;17689;45.610;5.858;2022-08-19T08:02:25;5.30;;;4.80;;
31018;SDS011;17689;45.610;5.858;2022-08-19T08:04:55;5.10;;;4.60;;
31018;SDS011;17689;45.610;5.858;2022-08-19T08:07:41;6.50;;;5.10;;
31018;SDS011;17689;45.610;5.858;2022-08-19T08:10:26;5.47;;;4.90;;
31018;SDS011;17689;45.610;5.858;2022-08-19T08:12:55;5.13;;;4.63;;
31018;SDS011;17689;45.610;5.858;2022-08-19T08:15:22;5.10;;;4.60;;
31018;SDS011;17689;45.610;5.858;2022-08-19T08:17:49;5.60;;;4.57;;
31018;SDS011;17689;45.610;5.858;2022-08-19T08:20:18;4.77;;;4.30;;
31018;SDS011;17689;45.610;5.858;2022-08-19T08:22:46;5.87;;;4.57;;
31018;SDS011;17689;45.610;5.858;2022-08-19T08:25:31;4.47;;;3.90;;
31018;SDS011;17689;45.610;5.858;2022-08-19T08:28:06;7.43;;;4.73;;
31018;SDS011;17689;45.610;5.858;2022-08-19T08:30:35;6.40;;;4.27;;
31018;SDS011;17689;45.610;5.858;2022-08-19T08:33:04;6.33;;;4.90;;
31018;SDS011;17689;45.610;5.858;2022-08-19T08:35:31;4.77;;;4.37;;
31018;SDS011;17689;45.610;5.858;2022-08-19T08:37:58;5.20;;;4.70;;
31018;SDS011;17689;45.610;5.858;2022-08-19T08:43:28;5.03;;;4.50;;
31018;SDS011;17689;45.610;5.858;2022-08-19T08:46:12;5.27;;;4.40;;
31018;SDS011;17689;45.610;5.858;2022-08-19T08:49:43;4.43;;;4.03;;
31018;SDS011;17689;45.610;5.858;2022-08-19T08:51:38;5.30;;;4.80;;
31018;SDS011;17689;45.610;5.858;2022-08-19T08:54:10;6.07;;;4.60;;
31018;SDS011;17689;45.610;5.858;2022-08-19T08:56:41;4.97;;;4.57;;
31018;SDS011;17689;45.610;5.858;2022-08-19T08:59:10;5.90;;;4.67;;
31018;SDS011;17689;45.610;5.858;2022-08-19T09:01:38;7.20;;;4.63;;
31018;SDS011;17689;45.610;5.858;2022-08-19T09:04:05;4.80;;;4.40;;
31018;SDS011;17689;45.610;5.858;2022-08-19T09:06:40;5.30;;;4.80;;
31018;SDS011;17689;45.610;5.858;2022-08-19T09:14:47;5.60;;;5.10;;
31018;SDS011;17689;45.610;5.858;2022-08-19T09:17:14;5.97;;;5.13;;
31018;SDS011;17689;45.610;5.858;2022-08-19T09:19:52;5.20;;;4.80;;
31018;SDS011;17689;45.610;5.858;2022-08-19T09:22:19;4.90;;;4.37;;
31018;SDS011;17689;45.610;5.858;2022-08-19T09:24:47;6.03;;;5.27;;
31018;SDS011;17689;45.610;5.858;2022-08-19T09:27:14;5.67;;;5.10;;
31018;SDS011;17689;45.610;5.858;2022-08-19T09:29:40;4.73;;;4.33;;
31018;SDS011;17689;45.610;5.858;2022-08-19T09:32:06;5.57;;;5.13;;
31018;SDS011;17689;45.610;5.858;2022-08-19T09:34:33;5.53;;;5.03;;
31018;SDS011;17689;45.610;5.858;2022-08-19T09:36:59;5.17;;;4.70;;
31018;SDS011;17689;45.610;5.858;2022-08-19T09:39:26;4.90;;;4.50;;
31018;SDS011;17689;45.610;5.858;2022-08-19T09:41:52;5.70;;;5.20;;
31018;SDS011;17689;45.610;5.858;2022-08-19T09:44:19;5.50;;;5.00;;
31018;SDS011;17689;45.610;5.858;2022-08-19T09:46:46;5.63;;;5.10;;
31018;SDS011;17689;45.610;5.858;2022-08-19T09:49:12;5.80;;;5.27;;
31018;SDS011;17689;45.610;5.858;2022-08-19T09:51:42;5.97;;;5.43;;
31018;SDS011;17689;45.610;5.858;2022-08-19T09:54:08;5.93;;;5.43;;
31018;SDS011;17689;45.610;5.858;2022-08-19T09:56:35;5.93;;;4.87;;
31018;SDS011;17689;45.610;5.858;2022-08-19T09:59:02;5.00;;;4.60;;
31018;SDS011;17689;45.610;5.858;2022-08-19T10:01:29;4.93;;;4.53;;
31018;SDS011;17689;45.610;5.858;2022-08-19T10:03:57;5.37;;;4.80;;
31018;SDS011;17689;45.610;5.858;2022-08-19T10:06:24;5.67;;;5.17;;
31018;SDS011;17689;45.610;5.858;2022-08-19T10:08:51;5.67;;;5.13;;
31018;SDS011;17689;45.610;5.858;2022-08-19T10:11:18;5.47;;;5.03;;
31018;SDS011;17689;45.610;5.858;2022-08-19T10:13:44;5.90;;;5.40;;
31018;SDS011;17689;45.610;5.858;2022-08-19T10:16:12;5.30;;;4.80;;
31018;SDS011;17689;45.610;5.858;2022-08-19T10:18:39;5.37;;;4.87;;
31018;SDS011;17689;45.610;5.858;2022-08-19T10:21:10;5.90;;;5.07;;
31018;SDS011;17689;45.610;5.858;2022-08-19T10:23:38;5.17;;;4.77;;
31018;SDS011;17689;45.610;5.858;2022-08-19T10:26:05;6.37;;;5.63;;
31018;SDS011;17689;45.610;5.858;2022-08-19T10:28:33;5.60;;;5.10;;
31018;SDS011;17689;45.610;5.858;2022-08-19T10:31:03;7.73;;;5.43;;
31018;SDS011;17689;45.610;5.858;2022-08-19T10:33:30;5.60;;;5.10;;
31018;SDS011;17689;45.610;5.858;2022-08-19T10:36:00;5.83;;;5.30;;
31018;SDS011;17689;45.610;5.858;2022-08-19T10:38:26;5.37;;;4.97;;
31018;SDS011;17689;45.610;5.858;2022-08-19T10:40:53;5.87;;;5.27;;
31018;SDS011;17689;45.610;5.858;2022-08-19T10:43:20;6.67;;;5.87;;
31018;SDS011;17689;45.610;5.858;2022-08-19T10:45:55;6.13;;;5.53;;
31018;SDS011;17689;45.610;5.858;2022-08-19T10:48:24;6.17;;;5.67;;
31018;SDS011;17689;45.610;5.858;2022-08-19T10:50:50;7.07;;;6.37;;
31018;SDS011;17689;45.610;5.858;2022-08-19T10:53:35;6.90;;;6.30;;
31018;SDS011;17689;45.610;5.858;2022-08-19T10:56:01;8.67;;;6.37;;
31018;SDS011;17689;45.610;5.858;2022-08-19T10:58:47;6.70;;;6.10;;
31018;SDS011;17689;45.610;5.858;2022-08-19T11:01:14;6.53;;;5.93;;
31018;SDS011;17689;45.610;5.858;2022-08-19T11:03:40;6.50;;;5.93;;
31018;SDS011;17689;45.610;5.858;2022-08-19T11:06:07;5.93;;;5.43;;
31018;SDS011;17689;45.610;5.858;2022-08-19T11:08:34;5.77;;;5.27;;
31018;SDS011;17689;45.610;5.858;2022-08-19T11:11:02;5.80;;;5.30;;
31018;SDS011;17689;45.610;5.858;2022-08-19T11:13:33;5.90;;;5.40;;
31018;SDS011;17689;45.610;5.858;2022-08-19T11:16:02;5.57;;;4.97;;
31018;SDS011;17689;45.610;5.858;2022-08-19T11:18:28;6.33;;;5.83;;
31018;SDS011;17689;45.610;5.858;2022-08-19T11:20:54;6.00;;;5.40;;
31018;SDS011;17689;45.610;5.858;2022-08-19T11:23:21;6.57;;;5.03;;
31018;SDS011;17689;45.610;5.858;2022-08-19T11:25:47;5.63;;;5.13;;
31018;SDS011;17689;45.610;5.858;2022-08-19T11:28:15;5.93;;;4.70;;
31018;SDS011;17689;45.610;5.858;2022-08-19T11:30:41;5.70;;;5.20;;
31018;SDS011;17689;45.610;5.858;2022-08-19T11:33:07;5.40;;;5.00;;
31018;SDS011;17689;45.610;5.858;2022-08-19T11:35:38;5.60;;;5.10;;
31018;SDS011;17689;45.610;5.858;2022-08-19T11:38:05;5.73;;;5.23;;
31018;SDS011;17689;45.610;5.858;2022-08-19T11:40:31;5.90;;;5.37;;
31018;SDS011;17689;45.610;5.858;2022-08-19T11:42:58;6.07;;;5.50;;
31018;SDS011;17689;45.610;5.858;2022-08-19T11:45:25;5.97;;;5.40;;
31018;SDS011;17689;45.610;5.858;2022-08-19T11:47:51;5.50;;;5.00;;
31018;SDS011;17689;45.610;5.858;2022-08-19T11:50:18;5.67;;;5.17;;
31018;SDS011;17689;45.610;5.858;2022-08-19T11:52:45;6.63;;;5.80;;
31018;SDS011;17689;45.610;5.858;2022-08-19T11:55:14;5.97;;;5.37;;
31018;SDS011;17689;45.610;5.858;2022-08-19T11:57:40;5.63;;;5.10;;
31018;SDS011;17689;45.610;5.858;2022-08-19T12:00:08;5.63;;;5.13;;
31018;SDS011;17689;45.610;5.858;2022-08-19T12:02:37;5.63;;;5.13;;
31018;SDS011;17689;45.610;5.858;2022-08-19T12:05:03;5.97;;;5.07;;
31018;SDS011;17689;45.610;5.858;2022-08-19T12:07:29;5.93;;;5.00;;
31018;SDS011;17689;45.610;5.858;2022-08-19T12:09:58;5.93;;;5.20;;
31018;SDS011;17689;45.610;5.858;2022-08-19T12:12:24;5.93;;;5.43;;
31018;SDS011;17689;45.610;5.858;2022-08-19T12:14:51;6.50;;;5.90;;
31018;SDS011;17689;45.610;5.858;2022-08-19T12:17:27;6.23;;;5.73;;
31018;SDS011;17689;45.610;5.858;2022-08-19T12:19:53;6.50;;;5.37;;
31018;SDS011;17689;45.610;5.858;2022-08-19T12:22:20;5.73;;;5.27;;
31018;SDS011;17689;45.610;5.858;2022-08-19T12:24:46;6.27;;;5.50;;
31018;SDS011;17689;45.610;5.858;2022-08-19T12:27:15;5.80;;;5.30;;
31018;SDS011;17689;45.610;5.858;2022-08-19T12:29:41;6.10;;;5.60;;
31018;SDS011;17689;45.610;5.858;2022-08-19T12:32:07;5.60;;;5.10;;
31018;SDS011;17689;45.610;5.858;2022-08-19T12:34:33;6.53;;;5.93;;
31018;SDS011;17689;45.610;5.858;2022-08-19T12:37:01;6.80;;;5.87;;
31018;SDS011;17689;45.610;5.858;2022-08-19T12:39:29;6.10;;;5.53;;
31018;SDS011;17689;45.610;5.858;2022-08-19T12:41:56;6.20;;;5.70;;
31018;SDS011;17689;45.610;5.858;2022-08-19T12:44:23;6.10;;;5.60;;
31018;SDS011;17689;45.610;5.858;2022-08-19T12:46:49;5.93;;;5.43;;
31018;SDS011;17689;45.610;5.858;2022-08-19T12:49:15;6.33;;;5.83;;
31018;SDS011;17689;45.610;5.858;2022-08-19T12:51:41;6.87;;;6.27;;
31018;SDS011;17689;45.610;5.858;2022-08-19T12:54:08;6.90;;;5.97;;
31018;SDS011;17689;45.610;5.858;2022-08-19T12:56:34;6.50;;;5.90;;
31018;SDS011;17689;45.610;5.858;2022-08-19T12:59:02;7.00;;;6.27;;
31018;SDS011;17689;45.610;5.858;2022-08-19T13:01:29;6.30;;;5.70;;
31018;SDS011;17689;45.610;5.858;2022-08-19T13:03:57;6.60;;;6.00;;
31018;SDS011;17689;45.610;5.858;2022-08-19T13:06:24;6.40;;;5.80;;
31018;SDS011;17689;45.610;5.858;2022-08-19T13:08:50;7.10;;;6.40;;
31018;SDS011;17689;45.610;5.858;2022-08-19T13:11:17;5.83;;;5.33;;
31018;SDS011;17689;45.610;5.858;2022-08-19T13:13:45;6.43;;;5.93;;
31018;SDS011;17689;45.610;5.858;2022-08-19T13:16:12;6.43;;;5.83;;
31018;SDS011;17689;45.610;5.858;2022-08-19T13:18:39;6.63;;;5.93;;
31018;SDS011;17689;45.610;5.858;2022-08-19T13:21:06;6.67;;;6.07;;
31018;SDS011;17689;45.610;5.858;2022-08-19T13:23:33;7.50;;;6.90;;
31018;SDS011;17689;45.610;5.858;2022-08-19T13:26:01;6.20;;;5.67;;
31018;SDS011;17689;45.610;5.858;2022-08-19T13:28:28;7.20;;;6.50;;
31018;SDS011;17689;45.610;5.858;2022-08-19T13:31:15;7.40;;;6.70;;
31018;SDS011;17689;45.610;5.858;2022-08-19T13:34:00;7.47;;;6.47;;
31018;SDS011;17689;45.610;5.858;2022-08-19T13:36:26;7.23;;;6.53;;
31018;SDS011;17689;45.610;5.858;2022-08-19T13:38:52;7.27;;;6.57;;
31018;SDS011;17689;45.610;5.858;2022-08-19T13:41:19;7.40;;;6.80;;
31018;SDS011;17689;45.610;5.858;2022-08-19T13:43:45;7.30;;;6.60;;
31018;SDS011;17689;45.610;5.858;2022-08-19T13:46:11;7.20;;;6.60;;
31018;SDS011;17689;45.610;5.858;2022-08-19T13:48:59;7.90;;;7.10;;
31018;SDS011;17689;45.610;5.858;2022-08-19T13:51:25;7.57;;;6.77;;
31018;SDS011;17689;45.610;5.858;2022-08-19T13:53:51;8.17;;;7.37;;
31018;SDS011;17689;45.610;5.858;2022-08-19T13:56:19;7.97;;;7.10;;
31018;SDS011;17689;45.610;5.858;2022-08-19T13:58:45;7.17;;;6.57;;
31018;SDS011;17689;45.610;5.858;2022-08-19T14:01:11;7.37;;;6.50;;
31018;SDS011;17689;45.610;5.858;2022-08-19T14:03:38;7.60;;;6.90;;
31018;SDS011;17689;45.610;5.858;2022-08-19T14:06:04;7.70;;;7.03;;
31018;SDS011;17689;45.610;5.858;2022-08-19T14:08:30;7.37;;;6.67;;
31018;SDS011;17689;45.610;5.858;2022-08-19T14:10:57;7.90;;;7.10;;
31018;SDS011;17689;45.610;5.858;2022-08-19T14:13:24;7.63;;;6.93;;
31018;SDS011;17689;45.610;5.858;2022-08-19T14:15:50;7.63;;;6.93;;
31018;SDS011;17689;45.610;5.858;2022-08-19T14:18:17;7.60;;;6.90;;
31018;SDS011;17689;45.610;5.858;2022-08-19T14:20:43;7.43;;;6.73;;
31018;SDS011;17689;45.610;5.858;2022-08-19T14:23:10;7.37;;;6.77;;
31018;SDS011;17689;45.610;5.858;2022-08-19T14:25:37;8.17;;;7.37;;
31018;SDS011;17689;45.610;5.858;2022-08-19T14:28:04;7.80;;;7.10;;
31018;SDS011;17689;45.610;5.858;2022-08-19T14:30:33;8.43;;;7.63;;
31018;SDS011;17689;45.610;5.858;2022-08-19T14:33:00;8.63;;;7.83;;
31018;SDS011;17689;45.610;5.858;2022-08-19T14:35:27;8.47;;;7.67;;
31018;SDS011;17689;45.610;5.858;2022-08-19T14:37:54;8.53;;;7.73;;
31018;SDS011;17689;45.610;5.858;2022-08-19T14:40:22;9.63;;;8.63;;
31018;SDS011;17689;45.610;5.858;2022-08-19T14:42:58;10.30;;;9.30;;
31018;SDS011;17689;45.610;5.858;2022-08-19T14:45:30;10.70;;;9.60;;
31018;SDS011;17689;45.610;5.858;2022-08-19T14:47:56;10.60;;;9.50;;
31018;SDS011;17689;45.610;5.858;2022-08-19T14:50:24;10.53;;;9.10;;
31018;SDS011;17689;45.610;5.858;2022-08-19T14:52:56;9.70;;;8.70;;
31018;SDS011;17689;45.610;5.858;2022-08-19T14:55:23;9.53;;;8.67;;
31018;SDS011;17689;45.610;5.858;2022-08-19T14:57:49;9.70;;;8.80;;
31018;SDS011;17689;45.610;5.858;2022-08-19T15:00:16;10.23;;;9.03;;
31018;SDS011;17689;45.610;5.858;2022-08-19T15:02:42;10.10;;;9.20;;
31018;SDS011;17689;45.610;5.858;2022-08-19T15:05:11;10.50;;;9.50;;